Time;durP1;ratioP1;P1;durP2;ratioP2;P2;SDS_P1;SDS_P2;PMS_P1;PMS_P2;Temp;Humidity;BMP_temperature;BMP_pressure;BME280_temperature;BME280_humidity;BME280_pressure;Samples;Min_cycle;Max_cycle;Signal;HPM_P1;HPM_P2
2020/12/02 00:00:27;;;;;;;42.00;19.65;;;;;;;;;;5069342;28;20032;-64
2020/12/02 00:03:02;;;;;;;44.97;19.85;;;;;;;;;;5072988;28;20396;-64
2020/12/02 00:05:28;;;;;;;48.47;19.77;;;;;;;;;;5071876;28;20055;-64
2020/12/02 00:08:01;;;;;;;45.38;20.77;;;;;;;;;;5069573;28;20017;-65
2020/12/02 00:10:26;;;;;;;47.80;20.77;;;;;;;;;;5091993;22;20157;-63
2020/12/02 00:12:52;;;;;;;45.67;20.25;;;;;;;;;;5069230;28;20112;-63
2020/12/02 00:15:17;;;;;;;39.08;18.92;;;;;;;;;;5068543;28;20023;-63
2020/12/02 00:17:42;;;;;;;41.38;19.63;;;;;;;;;;5068312;28;20453;-63
2020/12/02 00:20:07;;;;;;;40.73;18.60;;;;;;;;;;5068554;28;20456;-63
2020/12/02 00:22:32;;;;;;;45.60;19.75;;;;;;;;;;5089038;28;20269;-63
2020/12/02 00:24:58;;;;;;;43.30;19.17;;;;;;;;;;5088779;28;20047;-64
2020/12/02 00:27:26;;;;;;;41.63;19.33;;;;;;;;;;5083306;28;20617;-63
2020/12/02 00:29:51;;;;;;;48.03;20.80;;;;;;;;;;5089961;28;20266;-63
2020/12/02 00:32:24;;;;;;;40.38;19.70;;;;;;;;;;5092620;28;20019;-63
2020/12/02 00:34:49;;;;;;;48.25;20.02;;;;;;;;;;5092760;28;20027;-63
2020/12/02 00:37:14;;;;;;;41.83;19.80;;;;;;;;;;5092139;28;20106;-63
2020/12/02 00:39:39;;;;;;;39.13;16.60;;;;;;;;;;5092727;28;20826;-64
2020/12/02 00:42:04;;;;;;;43.42;19.58;;;;;;;;;;5092394;28;20258;-63
2020/12/02 00:44:30;;;;;;;41.70;18.92;;;;;;;;;;5092510;28;20315;-63
2020/12/02 00:46:55;;;;;;;45.20;19.70;;;;;;;;;;5092243;28;20687;-64
2020/12/02 00:49:20;;;;;;;41.85;19.73;;;;;;;;;;5092316;28;20464;-63
2020/12/02 00:51:45;;;;;;;39.55;20.00;;;;;;;;;;5091821;28;20023;-64
2020/12/02 00:54:10;;;;;;;42.00;19.60;;;;;;;;;;5092805;28;20023;-64
2020/12/02 00:56:37;;;;;;;41.97;19.05;;;;;;;;;;5092206;28;20024;-63
2020/12/02 00:59:06;;;;;;;44.35;19.27;;;;;;;;;;5091317;28;20078;-63
2020/12/02 01:01:37;;;;;;;45.33;19.80;;;;;;;;;;5091587;28;20043;-63
2020/12/02 01:04:02;;;;;;;38.40;18.23;;;;;;;;;;5091832;28;20024;-63
2020/12/02 01:06:28;;;;;;;37.78;17.20;;;;;;;;;;5092292;28;20012;-64
2020/12/02 01:08:53;;;;;;;38.17;17.98;;;;;;;;;;5092059;28;20459;-63
2020/12/02 01:11:22;;;;;;;38.95;17.70;;;;;;;;;;5092121;28;20384;-63
2020/12/02 01:13:52;;;;;;;42.38;17.50;;;;;;;;;;5090938;28;20038;-63
2020/12/02 01:16:18;;;;;;;39.17;18.37;;;;;;;;;;5089374;28;20024;-63
2020/12/02 01:18:44;;;;;;;42.97;19.20;;;;;;;;;;5091312;28;20156;-64
2020/12/02 01:21:12;;;;;;;40.25;17.83;;;;;;;;;;5091975;28;21397;-64
2020/12/02 01:23:38;;;;;;;39.65;17.35;;;;;;;;;;5091945;28;20035;-64
2020/12/02 01:26:05;;;;;;;38.85;18.73;;;;;;;;;;5091466;28;20468;-63
2020/12/02 01:28:31;;;;;;;43.72;19.83;;;;;;;;;;5091972;28;20484;-63
2020/12/02 01:30:57;;;;;;;45.08;19.27;;;;;;;;;;5090160;28;20051;-64
2020/12/02 01:33:23;;;;;;;44.42;18.98;;;;;;;;;;5087355;28;20410;-63
2020/12/02 01:35:49;;;;;;;42.03;20.52;;;;;;;;;;5091755;28;20119;-63
2020/12/02 01:38:18;;;;;;;46.78;21.02;;;;;;;;;;5090798;28;20115;-63
2020/12/02 01:40:43;;;;;;;49.45;21.17;;;;;;;;;;5091934;28;20016;-64
2020/12/02 01:43:10;;;;;;;46.13;20.25;;;;;;;;;;5091173;28;20450;-63
2020/12/02 01:45:39;;;;;;;48.33;20.67;;;;;;;;;;5089004;28;20026;-63
2020/12/02 01:48:23;;;;;;;44.10;20.48;;;;;;;;;;5090869;28;20020;-63
2020/12/02 01:50:57;;;;;;;44.40;20.15;;;;;;;;;;5090306;28;20038;-63
2020/12/02 01:53:41;;;;;;;55.55;20.40;;;;;;;;;;5091171;28;20031;-64
2020/12/02 01:56:14;;;;;;;46.17;20.50;;;;;;;;;;5091149;28;20038;-63
2020/12/02 01:58:39;;;;;;;43.03;19.88;;;;;;;;;;5091141;28;20039;-63
2020/12/02 02:01:09;;;;;;;45.72;19.35;;;;;;;;;;5089464;28;20099;-63
2020/12/02 02:03:36;;;;;;;45.83;20.88;;;;;;;;;;5090481;28;20251;-63
2020/12/02 02:06:05;;;;;;;44.28;20.23;;;;;;;;;;5090718;28;20119;-63
2020/12/02 02:08:32;;;;;;;47.83;19.60;;;;;;;;;;5091101;28;20403;-64
2020/12/02 02:10:58;;;;;;;44.97;20.52;;;;;;;;;;5090409;28;20461;-63
2020/12/02 02:13:42;;;;;;;45.45;21.27;;;;;;;;;;5090705;28;20403;-63
2020/12/02 02:16:09;;;;;;;50.83;20.83;;;;;;;;;;5090540;28;20023;-63
2020/12/02 02:18:35;;;;;;;47.33;20.98;;;;;;;;;;5089755;28;20115;-64
2020/12/02 02:21:02;;;;;;;43.47;20.52;;;;;;;;;;5090405;28;20111;-64
2020/12/02 02:23:28;;;;;;;43.78;19.42;;;;;;;;;;5091045;28;20476;-62
2020/12/02 02:26:11;;;;;;;51.22;19.73;;;;;;;;;;5096594;28;20027;-63
2020/12/02 02:28:39;;;;;;;45.88;19.25;;;;;;;;;;5087440;28;20024;-63
2020/12/02 02:31:08;;;;;;;44.75;19.92;;;;;;;;;;5090770;28;20023;-63
2020/12/02 02:33:33;;;;;;;40.65;17.98;;;;;;;;;;5071884;28;20107;-64
2020/12/02 02:35:58;;;;;;;47.38;18.67;;;;;;;;;;5090218;28;20107;-63
2020/12/02 02:38:24;;;;;;;46.00;18.45;;;;;;;;;;5090147;28;20051;-63
2020/12/02 02:40:49;;;;;;;39.05;17.70;;;;;;;;;;5090194;28;20051;-63
2020/12/02 02:43:14;;;;;;;45.40;19.50;;;;;;;;;;5090179;28;20406;-63
2020/12/02 02:45:39;;;;;;;44.05;18.30;;;;;;;;;;5089864;28;20038;-64
2020/12/02 02:48:07;;;;;;;43.95;18.10;;;;;;;;;;5089417;28;20023;-63
2020/12/02 02:50:36;;;;;;;48.65;20.75;;;;;;;;;;5089158;28;20024;-64
2020/12/02 02:53:02;;;;;;;41.50;17.92;;;;;;;;;;5090160;28;20182;-63
2020/12/02 02:55:28;;;;;;;45.28;18.55;;;;;;;;;;5085764;28;20027;-64
2020/12/02 02:57:54;;;;;;;48.40;18.75;;;;;;;;;;5067890;28;20024;-64
2020/12/02 03:00:24;;;;;;;46.75;19.00;;;;;;;;;;5089541;28;20148;-63
2020/12/02 03:02:49;;;;;;;45.80;18.23;;;;;;;;;;5083961;28;20074;-63
2020/12/02 03:05:15;;;;;;;37.67;15.73;;;;;;;;;;5081891;28;20052;-63
2020/12/02 03:07:42;;;;;;;46.25;19.33;;;;;;;;;;5089094;28;20262;-63
2020/12/02 03:10:09;;;;;;;48.55;20.15;;;;;;;;;;5082286;28;20024;-63
2020/12/02 03:12:35;;;;;;;41.35;18.45;;;;;;;;;;5070373;28;20424;-63
2020/12/02 03:15:00;;;;;;;46.30;18.98;;;;;;;;;;5088463;28;20532;-63
2020/12/02 03:17:26;;;;;;;42.00;19.08;;;;;;;;;;5089410;28;20020;-63
2020/12/02 03:20:04;;;;;;;45.60;18.55;;;;;;;;;;5089730;28;20385;-63
2020/12/02 03:22:30;;;;;;;45.97;19.17;;;;;;;;;;5085586;28;20030;-64
2020/12/02 03:24:57;;;;;;;47.05;18.40;;;;;;;;;;5068623;28;20649;-63
2020/12/02 03:27:22;;;;;;;41.08;17.65;;;;;;;;;;5089671;28;20024;-64
2020/12/02 03:29:47;;;;;;;42.05;17.45;;;;;;;;;;5087485;28;20020;-64
2020/12/02 03:32:13;;;;;;;53.50;19.70;;;;;;;;;;5090885;28;20107;-63
2020/12/02 03:34:38;;;;;;;42.38;18.27;;;;;;;;;;5090810;28;20016;-63
2020/12/02 03:37:03;;;;;;;50.85;19.15;;;;;;;;;;5087281;28;20036;-64
2020/12/02 03:39:28;;;;;;;41.80;18.00;;;;;;;;;;5086886;28;20086;-64
2020/12/02 03:41:53;;;;;;;44.15;19.38;;;;;;;;;;5086481;28;20028;-64
2020/12/02 03:44:18;;;;;;;40.35;18.15;;;;;;;;;;5088536;28;20026;-64
2020/12/02 03:46:44;;;;;;;40.33;17.73;;;;;;;;;;5086835;28;20027;-63
2020/12/02 03:49:09;;;;;;;43.75;18.95;;;;;;;;;;5085848;28;20055;-64
2020/12/02 03:51:34;;;;;;;46.28;18.35;;;;;;;;;;5088890;28;20476;-63
2020/12/02 03:54:00;;;;;;;36.80;16.73;;;;;;;;;;5089550;28;20016;-64
2020/12/02 03:56:25;;;;;;;42.47;17.17;;;;;;;;;;5087609;28;20019;-64
2020/12/02 03:58:50;;;;;;;41.78;17.20;;;;;;;;;;5070233;28;20035;-64
2020/12/02 04:01:16;;;;;;;37.65;16.50;;;;;;;;;;5086838;28;20024;-64
2020/12/02 04:03:42;;;;;;;45.13;19.27;;;;;;;;;;5091959;28;20015;-63
2020/12/02 04:06:08;;;;;;;42.28;18.40;;;;;;;;;;5084553;28;20162;-64
2020/12/02 04:08:35;;;;;;;38.50;16.38;;;;;;;;;;5092088;28;20103;-64
2020/12/02 04:11:00;;;;;;;37.80;17.30;;;;;;;;;;5090867;28;20031;-64
2020/12/02 04:13:25;;;;;;;46.58;15.95;;;;;;;;;;5090166;28;20024;-64
2020/12/02 04:15:51;;;;;;;39.60;16.63;;;;;;;;;;5092619;28;20020;-64
2020/12/02 04:18:16;;;;;;;34.67;15.57;;;;;;;;;;5092723;28;20095;-63
2020/12/02 04:20:41;;;;;;;32.22;13.85;;;;;;;;;;5090383;28;20086;-64
2020/12/02 04:23:06;;;;;;;35.17;13.52;;;;;;;;;;5092965;28;20044;-64
2020/12/02 04:25:31;;;;;;;29.92;14.73;;;;;;;;;;5093044;28;20028;-63
2020/12/02 04:27:57;;;;;;;33.42;13.32;;;;;;;;;;5089243;28;20528;-64
2020/12/02 04:30:22;;;;;;;32.67;15.55;;;;;;;;;;5084982;28;20040;-64
2020/12/02 04:32:47;;;;;;;31.73;13.98;;;;;;;;;;5088931;28;20020;-64
2020/12/02 04:35:13;;;;;;;27.77;13.77;;;;;;;;;;5091695;28;20023;-64
2020/12/02 04:37:38;;;;;;;30.67;14.57;;;;;;;;;;5074572;28;20480;-64
2020/12/02 04:40:05;;;;;;;36.20;14.80;;;;;;;;;;5092959;28;20445;-64
2020/12/02 04:42:31;;;;;;;33.80;14.13;;;;;;;;;;5092312;28;20531;-64
2020/12/02 04:44:57;;;;;;;33.13;14.07;;;;;;;;;;5093107;28;20095;-64
2020/12/02 04:47:29;;;;;;;32.65;15.45;;;;;;;;;;5091557;28;20017;-64
2020/12/02 04:49:54;;;;;;;27.75;13.82;;;;;;;;;;5081030;28;20024;-64
2020/12/02 04:52:22;;;;;;;27.43;13.37;;;;;;;;;;5091957;28;20384;-65
2020/12/02 04:54:48;;;;;;;25.25;12.35;;;;;;;;;;5092360;28;20269;-65
2020/12/02 04:57:13;;;;;;;31.00;13.73;;;;;;;;;;5090412;28;20023;-64
2020/12/02 04:59:41;;;;;;;29.45;13.48;;;;;;;;;;5091423;28;21705;-65
2020/12/02 05:02:06;;;;;;;31.58;12.95;;;;;;;;;;5092367;28;20092;-65
2020/12/02 05:04:32;;;;;;;30.35;13.70;;;;;;;;;;5092545;28;20536;-64
2020/12/02 05:07:00;;;;;;;31.02;14.15;;;;;;;;;;5091559;28;20023;-64
2020/12/02 05:09:25;;;;;;;29.08;13.50;;;;;;;;;;5092286;28;20473;-64
2020/12/02 05:11:56;;;;;;;33.40;14.05;;;;;;;;;;5092187;28;20031;-64
2020/12/02 05:14:21;;;;;;;31.02;13.85;;;;;;;;;;5090950;28;20031;-65
2020/12/02 05:16:59;;;;;;;29.55;13.68;;;;;;;;;;5091813;28;20028;-65
2020/12/02 05:19:24;;;;;;;26.23;12.32;;;;;;;;;;5091838;28;20055;-64
2020/12/02 05:21:49;;;;;;;34.47;14.67;;;;;;;;;;5089932;28;20758;-64
2020/12/02 05:24:16;;;;;;;31.38;12.95;;;;;;;;;;5090669;28;20345;-65
2020/12/02 05:26:43;;;;;;;28.42;12.50;;;;;;;;;;5092423;28;20127;-64
2020/12/02 05:29:15;;;;;;;28.58;13.02;;;;;;;;;;5090845;28;20464;-64
2020/12/02 05:31:42;;;;;;;31.05;14.05;;;;;;;;;;5074357;28;20433;-64
2020/12/02 05:34:13;;;;;;;31.25;14.00;;;;;;;;;;5091325;28;20020;-65
2020/12/02 05:36:40;;;;;;;23.48;12.00;;;;;;;;;;5087920;28;20129;-64
2020/12/02 05:39:11;;;;;;;28.95;13.27;;;;;;;;;;5091383;28;20032;-64
2020/12/02 05:41:37;;;;;;;28.00;14.15;;;;;;;;;;5091957;28;20069;-65
2020/12/02 05:44:02;;;;;;;26.42;12.48;;;;;;;;;;5092005;28;20020;-64
2020/12/02 05:46:41;;;;;;;25.33;11.40;;;;;;;;;;5092318;28;20024;-64
2020/12/02 05:49:09;;;;;;;33.93;12.50;;;;;;;;;;5090949;28;20036;-64
2020/12/02 05:51:34;;;;;;;27.33;13.27;;;;;;;;;;5093096;28;20277;-65
2020/12/02 05:54:04;;;;;;;27.50;12.32;;;;;;;;;;5088000;28;20035;-65
2020/12/02 05:56:29;;;;;;;31.50;13.45;;;;;;;;;;5089702;28;20016;-65
2020/12/02 05:58:55;;;;;;;26.38;11.93;;;;;;;;;;5086123;28;20038;-65
2020/12/02 06:01:21;;;;;;;29.02;13.80;;;;;;;;;;5083930;28;20055;-64
2020/12/02 06:03:49;;;;;;;25.92;13.20;;;;;;;;;;5086071;28;20020;-65
2020/12/02 06:06:15;;;;;;;26.95;12.57;;;;;;;;;;5089586;28;20027;-65
2020/12/02 06:08:45;;;;;;;24.40;9.43;;;;;;;;;;5088299;28;20024;-64
2020/12/02 06:11:21;;;;;;;28.50;11.55;;;;;;;;;;5113503;22;20036;-64
2020/12/02 06:14:00;;;;;;;27.45;9.50;;;;;;;;;;5105563;28;20114;-65
2020/12/02 06:16:29;;;;;;;28.33;13.20;;;;;;;;;;5107548;28;20041;-64
2020/12/02 06:18:54;;;;;;;28.73;12.52;;;;;;;;;;5107871;28;20030;-65
2020/12/02 06:21:32;;;;;;;30.60;12.73;;;;;;;;;;5095410;28;20373;-66
2020/12/02 06:23:58;;;;;;;28.67;12.52;;;;;;;;;;5087008;28;20016;-66
2020/12/02 06:26:34;;;;;;;27.23;11.50;;;;;;;;;;5088095;28;20461;-65
2020/12/02 06:28:59;;;;;;;32.05;12.25;;;;;;;;;;5087669;28;20261;-65
2020/12/02 06:31:26;;;;;;;28.60;13.32;;;;;;;;;;5087617;28;20065;-64
2020/12/02 06:33:51;;;;;;;25.75;10.80;;;;;;;;;;5087215;28;20034;-65
2020/12/02 06:36:19;;;;;;;31.25;11.60;;;;;;;;;;5087565;28;20111;-63
2020/12/02 06:38:46;;;;;;;29.55;12.90;;;;;;;;;;5088198;28;20039;-63
2020/12/02 06:41:20;;;;;;;27.13;13.30;;;;;;;;;;5084029;28;20093;-64
2020/12/02 06:43:57;;;;;;;28.25;12.77;;;;;;;;;;5086341;28;22113;-66
2020/12/02 06:46:40;;;;;;;27.40;13.50;;;;;;;;;;5087159;28;20606;-65
2020/12/02 06:49:06;;;;;;;26.80;13.55;;;;;;;;;;5088071;28;20020;-65
2020/12/02 06:51:31;;;;;;;28.38;13.32;;;;;;;;;;5087191;28;20032;-64
2020/12/02 06:53:56;;;;;;;24.27;11.50;;;;;;;;;;5086164;28;20201;-63
2020/12/02 06:56:22;;;;;;;28.83;12.67;;;;;;;;;;5086992;28;20077;-64
2020/12/02 06:59:04;;;;;;;26.27;12.95;;;;;;;;;;5085798;28;20761;-65
2020/12/02 07:01:31;;;;;;;27.88;12.82;;;;;;;;;;5086085;28;20023;-65
2020/12/02 07:03:58;;;;;;;31.65;12.73;;;;;;;;;;5087168;28;20024;-64
2020/12/02 07:06:27;;;;;;;29.63;11.50;;;;;;;;;;5086624;28;20032;-64
2020/12/02 07:09:04;;;;;;;27.58;10.13;;;;;;;;;;5088202;28;20058;-64
2020/12/02 07:11:29;;;;;;;24.27;9.68;;;;;;;;;;5084969;28;20024;-64
2020/12/02 07:13:54;;;;;;;19.10;8.27;;;;;;;;;;5087981;28;20028;-64
2020/12/02 07:16:19;;;;;;;19.30;8.82;;;;;;;;;;5089236;28;20035;-64
2020/12/02 07:18:46;;;;;;;24.30;11.95;;;;;;;;;;5085614;28;20581;-64
2020/12/02 07:21:26;;;;;;;22.55;11.98;;;;;;;;;;5089052;28;20020;-65
2020/12/02 07:23:52;;;;;;;21.30;10.68;;;;;;;;;;5088996;28;20039;-64
2020/12/02 07:26:18;;;;;;;21.35;9.85;;;;;;;;;;5087767;28;20043;-64
2020/12/02 07:28:43;;;;;;;21.58;10.55;;;;;;;;;;5087673;28;20062;-64
2020/12/02 07:31:12;;;;;;;20.75;8.38;;;;;;;;;;5083691;28;20024;-64
2020/12/02 07:33:39;;;;;;;31.08;10.80;;;;;;;;;;5087265;28;20405;-65
2020/12/02 07:36:04;;;;;;;7.72;4.25;;;;;;;;;;5088568;28;20027;-65
2020/12/02 07:38:29;;;;;;;20.80;9.70;;;;;;;;;;5092588;28;20028;-63
2020/12/02 07:41:04;;;;;;;10.48;5.43;;;;;;;;;;5093681;28;20035;-65
2020/12/02 07:43:29;;;;;;;21.42;10.43;;;;;;;;;;5092665;28;20373;-65
2020/12/02 07:45:57;;;;;;;12.68;6.60;;;;;;;;;;5093934;28;20049;-64
2020/12/02 07:48:24;;;;;;;13.35;6.82;;;;;;;;;;5092756;28;20464;-65
2020/12/02 07:50:54;;;;;;;10.13;4.97;;;;;;;;;;5069553;28;20510;-66
2020/12/02 07:53:25;;;;;;;18.13;9.27;;;;;;;;;;5092576;28;20066;-65
2020/12/02 07:55:51;;;;;;;24.17;10.93;;;;;;;;;;5093604;28;20095;-65
2020/12/02 07:58:28;;;;;;;28.05;13.95;;;;;;;;;;5092838;28;20036;-65
2020/12/02 08:00:56;;;;;;;22.10;9.90;;;;;;;;;;5093203;28;20024;-65
2020/12/02 08:03:27;;;;;;;23.83;10.88;;;;;;;;;;5093528;28;20031;-65
2020/12/02 08:05:55;;;;;;;26.15;10.65;;;;;;;;;;5087972;28;20472;-66
2020/12/02 08:08:21;;;;;;;30.35;13.38;;;;;;;;;;5092173;28;20027;-64
2020/12/02 08:10:46;;;;;;;7.15;4.05;;;;;;;;;;5093272;28;20016;-64
2020/12/02 08:13:13;;;;;;;18.40;8.85;;;;;;;;;;5092977;28;20024;-63
2020/12/02 08:15:44;;;;;;;21.95;11.32;;;;;;;;;;5093476;28;20028;-64
2020/12/02 08:18:13;;;;;;;15.85;8.25;;;;;;;;;;5092907;28;20024;-65
2020/12/02 08:20:38;;;;;;;18.67;8.90;;;;;;;;;;5091426;28;20040;-65
2020/12/02 08:23:08;;;;;;;27.67;12.93;;;;;;;;;;5092419;28;20532;-64
2020/12/02 08:25:37;;;;;;;7.97;3.88;;;;;;;;;;5092991;28;20008;-65
2020/12/02 08:28:07;;;;;;;17.55;8.13;;;;;;;;;;5092677;28;20070;-65
2020/12/02 08:30:32;;;;;;;24.92;12.88;;;;;;;;;;5093304;28;20418;-64
2020/12/02 08:33:09;;;;;;;14.90;6.40;;;;;;;;;;5093047;28;20028;-63
2020/12/02 08:35:40;;;;;;;17.63;8.95;;;;;;;;;;5089958;28;20024;-63
2020/12/02 08:38:06;;;;;;;11.68;5.82;;;;;;;;;;5084553;28;20471;-64
2020/12/02 08:40:39;;;;;;;25.55;13.55;;;;;;;;;;5092716;28;20036;-64
2020/12/02 08:43:18;;;;;;;16.65;8.85;;;;;;;;;;5092547;28;20024;-64
2020/12/02 08:45:54;;;;;;;27.83;11.10;;;;;;;;;;5093062;28;20026;-64
2020/12/02 08:48:19;;;;;;;22.75;11.32;;;;;;;;;;5090615;28;20418;-64
2020/12/02 08:50:44;;;;;;;21.10;10.77;;;;;;;;;;5090867;28;20028;-64
2020/12/02 08:53:10;;;;;;;22.95;11.20;;;;;;;;;;5091954;28;20028;-64
2020/12/02 08:55:35;;;;;;;25.58;13.30;;;;;;;;;;5089984;28;20046;-64
2020/12/02 08:58:00;;;;;;;31.48;13.60;;;;;;;;;;5092156;28;20024;-65
2020/12/02 09:00:25;;;;;;;24.77;11.63;;;;;;;;;;5091991;28;20024;-65
2020/12/02 09:02:51;;;;;;;21.77;10.40;;;;;;;;;;5092074;28;20047;-64
2020/12/02 09:05:16;;;;;;;22.70;12.85;;;;;;;;;;5091414;28;20024;-65
2020/12/02 09:07:41;;;;;;;22.42;11.13;;;;;;;;;;5091467;28;20453;-64
2020/12/02 09:10:07;;;;;;;25.75;13.35;;;;;;;;;;5092589;28;20077;-65
2020/12/02 09:12:32;;;;;;;26.27;12.00;;;;;;;;;;5092773;28;20085;-65
2020/12/02 09:14:58;;;;;;;19.60;9.15;;;;;;;;;;5092838;28;20483;-64
2020/12/02 09:17:23;;;;;;;31.38;13.07;;;;;;;;;;5090787;28;20464;-64
2020/12/02 09:19:50;;;;;;;22.75;11.55;;;;;;;;;;5092072;28;20384;-65
2020/12/02 09:22:15;;;;;;;25.48;12.25;;;;;;;;;;5091999;28;22096;-65
2020/12/02 09:24:41;;;;;;;25.13;12.95;;;;;;;;;;5090357;28;20124;-66
2020/12/02 09:27:06;;;;;;;25.73;13.57;;;;;;;;;;5091516;28;20638;-64
2020/12/02 09:29:31;;;;;;;25.88;11.07;;;;;;;;;;5092115;28;20464;-66
2020/12/02 09:31:56;;;;;;;26.13;11.70;;;;;;;;;;5091671;28;20027;-63
2020/12/02 09:34:22;;;;;;;26.03;14.70;;;;;;;;;;5091156;28;20024;-63
2020/12/02 09:36:47;;;;;;;21.58;10.57;;;;;;;;;;5091454;28;20262;-63
2020/12/02 09:39:13;;;;;;;23.30;11.80;;;;;;;;;;5089023;28;20084;-63
2020/12/02 09:41:56;;;;;;;27.95;12.43;;;;;;;;;;5088909;28;20387;-63
2020/12/02 09:44:30;;;;;;;20.60;8.68;;;;;;;;;;5091443;28;20410;-64
2020/12/02 09:47:00;;;;;;;25.30;11.65;;;;;;;;;;5091283;28;20016;-64
2020/12/02 09:49:26;;;;;;;15.05;7.50;;;;;;;;;;5090485;28;20042;-62
2020/12/02 09:51:52;;;;;;;12.45;5.32;;;;;;;;;;5091234;28;20063;-63
2020/12/02 09:54:17;;;;;;;18.58;11.20;;;;;;;;;;5091403;28;20020;-63
2020/12/02 09:56:44;;;;;;;12.48;6.78;;;;;;;;;;5088674;28;20034;-62
2020/12/02 09:59:10;;;;;;;17.48;9.35;;;;;;;;;;5089857;28;20016;-63
2020/12/02 10:01:40;;;;;;;11.02;4.68;;;;;;;;;;5089834;28;20024;-63
2020/12/02 10:04:05;;;;;;;;;;;;;;;;;;5092102;28;20069;-63
2020/12/02 10:06:43;;;;;;;19.20;9.20;;;;;;;;;;5091872;28;19908;-62
2020/12/02 10:09:22;;;;;;;20.83;9.70;;;;;;;;;;5091401;28;20250;-64
2020/12/02 10:11:54;;;;;;;13.05;6.63;;;;;;;;;;5091475;28;20032;-64
2020/12/02 10:14:37;;;;;;;20.98;10.18;;;;;;;;;;5091759;28;20103;-63
2020/12/02 10:17:05;;;;;;;20.67;9.90;;;;;;;;;;5089668;28;20437;-63
2020/12/02 10:19:39;;;;;;;23.38;12.68;;;;;;;;;;5091076;28;20035;-63
2020/12/02 10:22:05;;;;;;;18.42;8.70;;;;;;;;;;5090767;28;20023;-64
2020/12/02 10:24:48;;;;;;;16.23;9.10;;;;;;;;;;5083087;28;20058;-64
2020/12/02 10:27:19;;;;;;;17.58;8.35;;;;;;;;;;5071320;28;20255;-63
2020/12/02 10:29:44;;;;;;;;;;;;;;;;;;5090702;28;20048;-63
2020/12/02 10:32:09;;;;;;;13.63;5.32;;;;;;;;;;5070853;28;19943;-64
2020/12/02 10:34:36;;;;;;;14.20;8.38;;;;;;;;;;5088185;28;20270;-64
2020/12/02 10:37:04;;;;;;;18.52;9.23;;;;;;;;;;5083697;28;20262;-65
2020/12/02 10:39:30;;;;;;;15.90;10.23;;;;;;;;;;5089507;28;20028;-64
2020/12/02 10:42:08;;;;;;;19.83;10.80;;;;;;;;;;5089937;28;20486;-64
2020/12/02 10:44:49;;;;;;;15.50;8.02;;;;;;;;;;5090507;28;20024;-64
2020/12/02 10:47:23;;;;;;;17.35;10.00;;;;;;;;;;5087611;28;20027;-63
2020/12/02 10:49:48;;;;;;;18.08;7.93;;;;;;;;;;5086868;28;20031;-64
2020/12/02 10:52:15;;;;;;;13.05;5.82;;;;;;;;;;5089331;28;20024;-63
2020/12/02 10:54:43;;;;;;;17.30;7.82;;;;;;;;;;5089505;28;20097;-63
2020/12/02 10:57:12;;;;;;;19.05;10.73;;;;;;;;;;5089617;28;20038;-63
2020/12/02 10:59:37;;;;;;;18.52;9.32;;;;;;;;;;5089642;28;20043;-63
2020/12/02 11:02:05;;;;;;;19.55;10.60;;;;;;;;;;5086429;28;20028;-64
2020/12/02 11:04:31;;;;;;;17.92;10.00;;;;;;;;;;5089565;28;20012;-65
2020/12/02 11:07:12;;;;;;;7.40;4.10;;;;;;;;;;5089873;28;20178;-64
2020/12/02 11:09:58;;;;;;;12.85;6.32;;;;;;;;;;5089243;28;20357;-64
2020/12/02 11:12:33;;;;;;;17.52;9.15;;;;;;;;;;5088648;28;20031;-64
2020/12/02 11:15:07;;;;;;;19.38;11.07;;;;;;;;;;5089794;28;20093;-64
2020/12/02 11:17:44;;;;;;;19.40;8.82;;;;;;;;;;5089724;28;20024;-64
2020/12/02 11:20:12;;;;;;;20.35;11.63;;;;;;;;;;5085817;28;20024;-64
2020/12/02 11:22:43;;;;;;;18.83;10.15;;;;;;;;;;5089060;28;20036;-64
2020/12/02 11:25:12;;;;;;;18.48;9.85;;;;;;;;;;5085910;28;20016;-63
2020/12/02 11:27:37;;;;;;;20.33;11.30;;;;;;;;;;5085035;28;20024;-64
2020/12/02 11:30:04;;;;;;;19.33;11.27;;;;;;;;;;5089607;28;20024;-63
2020/12/02 11:32:49;;;;;;;19.45;10.52;;;;;;;;;;5089233;28;20434;-63
2020/12/02 11:35:33;;;;;;;30.95;14.85;;;;;;;;;;5089508;28;20338;-64
2020/12/02 11:38:17;;;;;;;18.58;10.95;;;;;;;;;;5086314;28;20480;-63
2020/12/02 11:40:48;;;;;;;19.20;9.98;;;;;;;;;;5088593;28;20024;-63
2020/12/02 11:43:25;;;;;;;15.30;8.27;;;;;;;;;;5080876;28;20028;-64
2020/12/02 11:45:52;;;;;;;7.38;4.32;;;;;;;;;;5089194;28;20548;-64
2020/12/02 11:48:22;;;;;;;11.93;6.63;;;;;;;;;;5089110;28;20028;-63
2020/12/02 11:51:08;;;;;;;7.57;3.75;;;;;;;;;;5089149;28;20077;-64
2020/12/02 11:53:33;;;;;;;12.35;7.53;;;;;;;;;;5088830;28;20118;-63
2020/12/02 11:55:59;;;;;;;10.20;3.88;;;;;;;;;;5088602;28;20096;-64
2020/12/02 11:58:24;;;;;;;22.95;7.32;;;;;;;;;;5088520;28;20278;-64
2020/12/02 12:00:54;;;;;;;11.32;6.43;;;;;;;;;;5088369;28;20027;-63
2020/12/02 12:03:35;;;;;;;13.20;6.85;;;;;;;;;;5088087;28;20464;-64
2020/12/02 12:06:12;;;;;;;18.35;7.57;;;;;;;;;;5085388;28;20431;-65
2020/12/02 12:08:49;;;;;;;10.27;5.47;;;;;;;;;;5088499;28;20028;-64
2020/12/02 12:11:22;;;;;;;15.90;6.88;;;;;;;;;;5088816;28;20024;-63
2020/12/02 12:13:51;;;;;;;12.65;6.22;;;;;;;;;;5088707;28;20028;-64
2020/12/02 12:16:30;;;;;;;18.13;8.17;;;;;;;;;;5069970;28;20404;-64
2020/12/02 12:19:04;;;;;;;12.38;7.38;;;;;;;;;;5087997;28;20355;-64
2020/12/02 12:21:33;;;;;;;13.73;4.45;;;;;;;;;;5087618;28;20020;-65
2020/12/02 12:24:17;;;;;;;9.77;5.45;;;;;;;;;;5087419;28;20012;-64
2020/12/02 12:26:47;;;;;;;13.10;6.85;;;;;;;;;;5088769;28;20024;-64
2020/12/02 12:29:13;;;;;;;11.10;5.97;;;;;;;;;;5091656;28;20031;-63
2020/12/02 12:31:44;;;;;;;13.15;6.18;;;;;;;;;;5092550;28;20031;-64
2020/12/02 12:34:16;;;;;;;9.80;6.63;;;;;;;;;;5092562;28;20023;-64
2020/12/02 12:36:42;;;;;;;13.57;7.13;;;;;;;;;;5086024;28;20032;-64
2020/12/02 12:39:12;;;;;;;13.45;7.70;;;;;;;;;;5080588;28;20074;-64
2020/12/02 12:41:57;;;;;;;10.93;7.53;;;;;;;;;;5093442;28;20095;-64
2020/12/02 12:44:27;;;;;;;9.13;5.70;;;;;;;;;;5072758;28;20079;-63
2020/12/02 12:46:55;;;;;;;12.20;7.28;;;;;;;;;;5073451;28;20025;-65
2020/12/02 12:49:21;;;;;;;12.52;6.38;;;;;;;;;;5076279;28;20081;-66
2020/12/02 12:51:47;;;;;;;10.48;6.65;;;;;;;;;;5092750;28;20064;-66
2020/12/02 12:54:19;;;;;;;10.60;6.07;;;;;;;;;;5093114;28;20058;-65
2020/12/02 12:56:44;;;;;;;9.93;6.00;;;;;;;;;;5074267;28;20029;-64
2020/12/02 12:59:11;;;;;;;10.25;6.78;;;;;;;;;;5105296;28;20518;-65
2020/12/02 13:01:37;;;;;;;9.30;4.32;;;;;;;;;;5091051;28;20023;-65
2020/12/02 13:04:04;;;;;;;9.77;6.05;;;;;;;;;;5091483;28;20480;-66
2020/12/02 13:06:34;;;;;;;9.20;5.43;;;;;;;;;;5091091;28;20103;-65
2020/12/02 13:08:59;;;;;;;;;;;;;;;;;;5088411;28;20371;-66
2020/12/02 13:11:34;;;;;;;9.65;5.88;;;;;;;;;;5091231;28;19916;-64
2020/12/02 13:14:03;;;;;;;10.13;6.35;;;;;;;;;;5091433;28;20031;-65
2020/12/02 13:16:58;;;;;;;12.37;5.37;;;;;;;;;;5090944;28;20055;-65
2020/12/02 13:19:44;;;;;;;9.38;5.38;;;;;;;;;;5076447;28;20315;-65
2020/12/02 13:22:17;;;;;;;10.60;5.53;;;;;;;;;;5089434;28;20041;-65
2020/12/02 13:24:55;;;;;;;9.48;5.00;;;;;;;;;;5087432;28;20027;-65
2020/12/02 13:27:40;;;;;;;7.90;4.32;;;;;;;;;;5088611;28;20018;-65
2020/12/02 13:30:08;;;;;;;7.80;4.85;;;;;;;;;;5089574;28;20367;-65
2020/12/02 13:32:46;;;;;;;9.77;6.07;;;;;;;;;;5090625;28;20377;-66
2020/12/02 13:35:11;;;;;;;7.18;4.22;;;;;;;;;;5089142;28;20028;-65
2020/12/02 13:37:36;;;;;;;9.35;5.10;;;;;;;;;;5090579;28;20146;-66
2020/12/02 13:40:03;;;;;;;10.20;5.75;;;;;;;;;;5091186;28;20043;-65
2020/12/02 13:42:29;;;;;;;8.77;5.65;;;;;;;;;;5089308;28;20021;-65
2020/12/02 13:45:14;;;;;;;9.73;5.60;;;;;;;;;;5090441;28;20031;-66
2020/12/02 13:47:42;;;;;;;10.70;4.80;;;;;;;;;;5085906;28;20039;-65
2020/12/02 13:50:10;;;;;;;11.93;6.28;;;;;;;;;;5089442;28;20058;-65
2020/12/02 13:52:38;;;;;;;11.55;6.40;;;;;;;;;;5090472;28;20039;-65
2020/12/02 13:55:04;;;;;;;9.60;4.60;;;;;;;;;;5090673;28;20019;-65
2020/12/02 13:57:36;;;;;;;12.30;6.20;;;;;;;;;;5090275;28;20434;-66
2020/12/02 14:00:10;;;;;;;9.90;5.65;;;;;;;;;;5086960;28;20024;-66
2020/12/02 14:02:38;;;;;;;11.00;6.55;;;;;;;;;;5084378;28;20473;-66
2020/12/02 14:05:12;;;;;;;12.80;7.20;;;;;;;;;;5089997;28;20030;-65
2020/12/02 14:07:40;;;;;;;5.93;3.90;;;;;;;;;;5089166;28;20027;-66
2020/12/02 14:10:09;;;;;;;15.40;6.72;;;;;;;;;;5067936;28;20035;-66
2020/12/02 14:12:35;;;;;;;10.20;6.60;;;;;;;;;;5089473;28;20030;-65
2020/12/02 14:15:00;;;;;;;15.30;8.00;;;;;;;;;;5089212;28;20420;-66
2020/12/02 14:17:26;;;;;;;16.92;9.18;;;;;;;;;;5089862;28;20107;-66
2020/12/02 14:19:52;;;;;;;14.32;9.00;;;;;;;;;;5088388;28;20380;-65
2020/12/02 14:22:24;;;;;;;15.52;8.18;;;;;;;;;;5088635;28;20422;-64
2020/12/02 14:24:53;;;;;;;16.92;8.23;;;;;;;;;;5089945;28;20020;-66
2020/12/02 14:27:23;;;;;;;14.95;8.93;;;;;;;;;;5089239;28;20027;-65
2020/12/02 14:29:49;;;;;;;14.52;7.35;;;;;;;;;;5089429;28;20099;-65
2020/12/02 14:32:15;;;;;;;13.43;7.53;;;;;;;;;;5088317;28;20107;-64